Terminal Aerodrome Forecast
Issued by NWS

Home | Current Version | Previous Version | Text Only | Print | Product List | Glossary Off
Versions: 1 2 3 4 5 6 7 8 9 10 11 12 13 14 15 16 17

000
FTUS43 KABR 202333
TAFMBG
TAF
KMBG 202333Z 2100/2124 11009KT P6SM SCT200
     FM211100 14011G21KT P6SM BKN100
     FM211600 21009KT P6SM SCT250
     FM211800 30014G23KT P6SM SCT200=

USA.gov is the U.S. government's official web portal to all federal, state and local government web resources and services.